createdAt,value
2019-03-31T00:02:29.430Z,101506.06
2019-03-31T00:04:59.900Z,101513.95
2019-03-31T00:07:31.080Z,101523.78
2019-03-31T00:10:01.522Z,101522.11
2019-03-31T00:12:32.856Z,101530.27
2019-03-31T00:15:04.362Z,101516.92
2019-03-31T00:17:34.445Z,101530.06
2019-03-31T00:20:04.611Z,101527.47
2019-03-31T00:22:34.577Z,101528.45
2019-03-31T00:25:04.791Z,101522.97
2019-03-31T00:27:34.813Z,101527.25
2019-03-31T00:30:06.169Z,101530.80
2019-03-31T00:32:37.552Z,101535.84
2019-03-31T00:35:07.947Z,101536.88
2019-03-31T00:37:37.889Z,101543.41
2019-03-31T00:40:09.202Z,101544.34
2019-03-31T00:42:40.525Z,101547.23
2019-03-31T00:45:11.957Z,101549.22
2019-03-31T00:47:44.345Z,101551.86
2019-03-31T00:50:15.425Z,101551.80
2019-03-31T00:52:46.091Z,101551.70
2019-03-31T00:55:16.775Z,101544.27
2019-03-31T00:57:50.938Z,101548.41
2019-03-31T01:00:40.781Z,101547.04
2019-03-31T01:03:11.943Z,101545.28
2019-03-31T01:05:44.118Z,101550.12
2019-03-31T01:08:18.959Z,101553.92
2019-03-31T01:10:52.943Z,101545.31
2019-03-31T01:13:22.767Z,101553.09
2019-03-31T01:15:55.509Z,101556.08
2019-03-31T01:18:25.353Z,101556.44
2019-03-31T01:20:55.250Z,101556.19
2019-03-31T01:23:25.194Z,101567.11
2019-03-31T01:25:55.074Z,101564.91
2019-03-31T01:28:25.015Z,101564.38
2019-03-31T01:30:55.130Z,101556.30
2019-03-31T01:33:25.535Z,101564.86
2019-03-31T01:35:55.410Z,101566.39
2019-03-31T01:38:25.512Z,101568.14
2019-03-31T01:40:55.570Z,101563.84
2019-03-31T01:43:26.872Z,101568.19
2019-03-31T01:45:57.548Z,101571.27
2019-03-31T01:48:28.451Z,101561.70
2019-03-31T01:50:59.216Z,101560.95
2019-03-31T01:53:35.413Z,101556.61
2019-03-31T01:56:06.367Z,101564.89
2019-03-31T01:58:36.920Z,101561.45
2019-03-31T02:01:08.031Z,101562.83
2019-03-31T02:03:38.232Z,101560.88
2019-03-31T02:06:08.833Z,101561.29
2019-03-31T02:08:38.947Z,101559.09
2019-03-31T02:11:09.003Z,101563.20
2019-03-31T02:13:41.618Z,101562.83
2019-03-31T02:16:14.048Z,101553.63
2019-03-31T02:18:44.661Z,101558.56
2019-03-31T02:21:14.915Z,101567.09
2019-03-31T02:23:45.379Z,101562.23
2019-03-31T02:26:15.391Z,101562.70
2019-03-31T02:28:45.325Z,101570.35
2019-03-31T02:31:15.434Z,101567.03
2019-03-31T02:33:48.710Z,101548.95
2019-03-31T02:36:20.565Z,101551.89
2019-03-31T02:38:50.746Z,101557.98
2019-03-31T02:41:22.487Z,101552.84
2019-03-31T02:43:52.416Z,101558.89
2019-03-31T02:46:22.554Z,101555.25
2019-03-31T02:48:52.435Z,101557.64
2019-03-31T02:51:27.009Z,101560.13
2019-03-31T02:53:57.069Z,101562.86
2019-03-31T02:56:27.196Z,101563.55
2019-03-31T02:58:57.892Z,101558.30
2019-03-31T03:01:27.879Z,101550.36
2019-03-31T03:04:01.404Z,101557.80
2019-03-31T03:06:32.364Z,101551.47
2019-03-31T03:09:05.766Z,101559.48
2019-03-31T03:11:36.161Z,101555.77
2019-03-31T03:14:08.281Z,101550.76
2019-03-31T03:16:38.151Z,101554.34
2019-03-31T03:19:07.984Z,101560.02
2019-03-31T03:21:38.059Z,101566.25
2019-03-31T03:24:07.918Z,101565.58
2019-03-31T03:26:37.741Z,101576.66
2019-03-31T03:29:07.770Z,101570.90
2019-03-31T03:31:37.642Z,101574.84
2019-03-31T03:34:07.521Z,101566.66
2019-03-31T03:36:37.496Z,101567.11
2019-03-31T03:39:08.706Z,101567.56
2019-03-31T03:41:38.738Z,101569.31
2019-03-31T03:44:08.544Z,101576.30
2019-03-31T03:46:38.443Z,101563.09
2019-03-31T03:49:08.444Z,101573.03
2019-03-31T03:51:38.327Z,101575.44
2019-03-31T03:54:08.152Z,101563.39
2019-03-31T03:56:38.113Z,101569.14
2019-03-31T03:59:07.980Z,101574.40
2019-03-31T04:01:37.821Z,101576.98
2019-03-31T04:04:07.915Z,101582.87
2019-03-31T04:06:37.812Z,101587.17
2019-03-31T04:09:08.140Z,101588.57
2019-03-31T04:11:38.267Z,101578.63
2019-03-31T04:14:08.139Z,101588.80
2019-03-31T04:16:37.955Z,101584.02
2019-03-31T04:19:08.008Z,101587.96
2019-03-31T04:21:37.819Z,101590.31
2019-03-31T04:24:07.662Z,101595.53
2019-03-31T04:26:37.619Z,101594.94
2019-03-31T04:29:07.495Z,101591.59
2019-03-31T04:31:37.365Z,101593.34
2019-03-31T04:34:07.411Z,101592.67
2019-03-31T04:36:37.250Z,101607.30
2019-03-31T04:39:08.407Z,101603.05
2019-03-31T04:41:38.324Z,101606.61
2019-03-31T04:44:08.194Z,101597.42
2019-03-31T04:46:38.286Z,101597.06
2019-03-31T04:49:08.118Z,101601.81
2019-03-31T04:51:37.969Z,101606.44
2019-03-31T04:54:07.973Z,101603.41
2019-03-31T04:56:37.825Z,101597.27
2019-03-31T04:59:07.675Z,101602.48
2019-03-31T05:01:37.745Z,101607.95
2019-03-31T05:04:07.590Z,101623.11
2019-03-31T05:06:37.455Z,101614.22
2019-03-31T05:09:07.962Z,101635.67
2019-03-31T05:11:37.798Z,101642.05
2019-03-31T05:14:07.652Z,101638.95
2019-03-31T05:16:38.164Z,101639.86
2019-03-31T05:19:07.982Z,101642.64
2019-03-31T05:21:37.943Z,101643.02
2019-03-31T05:24:07.831Z,101649.44
2019-03-31T05:26:37.665Z,101650.27
2019-03-31T05:29:07.599Z,101663.20
2019-03-31T05:31:37.536Z,101657.92
2019-03-31T05:34:18.321Z,101653.94
2019-03-31T05:36:39.105Z,101651.55
2019-03-31T05:39:08.963Z,101658.88
2019-03-31T05:41:38.889Z,101662.88
2019-03-31T05:44:08.809Z,101674.77
2019-03-31T05:46:38.617Z,101679.55
2019-03-31T05:49:08.685Z,101672.35
2019-03-31T05:51:38.718Z,101677.11
2019-03-31T05:54:08.576Z,101678.66
2019-03-31T05:56:38.405Z,101685.46
2019-03-31T05:59:08.396Z,101689.72
2019-03-31T06:01:38.221Z,101687.31
2019-03-31T06:04:08.092Z,101690.41
2019-03-31T06:06:38.138Z,101699.80
2019-03-31T06:09:08.113Z,101696.81
2019-03-31T06:11:38.030Z,101700.14
2019-03-31T06:14:07.973Z,101695.70
2019-03-31T06:16:37.784Z,101697.54
2019-03-31T06:19:07.635Z,101693.57
2019-03-31T06:21:37.673Z,101689.45
2019-03-31T06:24:07.594Z,101694.40
2019-03-31T06:26:37.435Z,101687.78
2019-03-31T06:29:07.466Z,101694.41
2019-03-31T06:31:37.384Z,101699.67
2019-03-31T06:34:07.292Z,101715.68
2019-03-31T06:36:37.130Z,101714.02
2019-03-31T06:39:08.354Z,101705.66
2019-03-31T06:41:38.600Z,101711.49
2019-03-31T06:44:08.403Z,101719.62
2019-03-31T06:46:38.370Z,101723.70
2019-03-31T06:49:08.327Z,101711.59
2019-03-31T06:51:38.139Z,101723.70
2019-03-31T06:54:07.994Z,101733.11
2019-03-31T06:56:38.044Z,101744.69
2019-03-31T06:59:07.894Z,101744.55
2019-03-31T07:01:37.739Z,101746.95
2019-03-31T07:04:07.618Z,101738.52
2019-03-31T07:06:37.560Z,101729.52
2019-03-31T07:09:07.931Z,101736.36
2019-03-31T07:11:37.757Z,101742.88
2019-03-31T07:14:07.578Z,101765.48
2019-03-31T07:16:37.549Z,101747.36
2019-03-31T07:19:07.366Z,101751.53
2019-03-31T07:21:37.249Z,101760.38
2019-03-31T07:24:07.955Z,101759.77
2019-03-31T07:26:38.030Z,101759.66
2019-03-31T07:29:08.041Z,101775.45
2019-03-31T07:31:37.951Z,101787.49
2019-03-31T07:34:07.859Z,101794.19
2019-03-31T07:36:37.929Z,101792.12
2019-03-31T07:39:08.651Z,101789.98
2019-03-31T07:41:38.820Z,101801.09
2019-03-31T07:44:08.843Z,101811.70
2019-03-31T07:46:38.741Z,101808.48
2019-03-31T07:49:08.553Z,101811.75
2019-03-31T07:51:38.550Z,101811.78
2019-03-31T07:54:08.451Z,101809.14
2019-03-31T07:56:38.261Z,101812.66
2019-03-31T07:59:08.294Z,101824.53
2019-03-31T08:01:38.138Z,101818.85
2019-03-31T08:04:08.002Z,101824.02
2019-03-31T08:06:38.062Z,101824.98
2019-03-31T08:09:08.381Z,101822.84
2019-03-31T08:11:38.260Z,101838.06
2019-03-31T08:14:08.438Z,101840.34
2019-03-31T08:16:38.376Z,101839.80
2019-03-31T08:19:08.174Z,101840.83
2019-03-31T08:21:38.350Z,101847.59
2019-03-31T08:24:08.287Z,101850.08
2019-03-31T08:26:38.096Z,101856.44
2019-03-31T08:29:08.205Z,101864.40
2019-03-31T08:31:38.133Z,101855.33
2019-03-31T08:34:08.057Z,101860.45
2019-03-31T08:36:38.054Z,101860.66
2019-03-31T08:39:09.726Z,101872.11
2019-03-31T08:41:39.663Z,101870.99
2019-03-31T08:44:09.493Z,101873.09
2019-03-31T08:46:39.408Z,101874.19
2019-03-31T08:49:09.403Z,101874.56
2019-03-31T08:51:39.227Z,101874.71
2019-03-31T08:54:09.067Z,101885.75
2019-03-31T08:56:39.131Z,101876.70
2019-03-31T08:59:08.937Z,101870.23
2019-03-31T09:01:38.853Z,101873.98
2019-03-31T09:04:08.902Z,101881.52
2019-03-31T09:06:38.724Z,101886.75
2019-03-31T09:09:09.741Z,101889.94
2019-03-31T09:11:39.856Z,101909.30
2019-03-31T09:14:09.816Z,101896.15
2019-03-31T09:16:39.811Z,101882.77
2019-03-31T09:19:09.907Z,101905.52
2019-03-31T09:21:39.803Z,101913.08
2019-03-31T09:24:09.671Z,101910.43
2019-03-31T09:26:39.769Z,101917.18
2019-03-31T09:29:09.651Z,101921.28
2019-03-31T09:31:39.540Z,101930.88
2019-03-31T09:34:09.470Z,101921.40
2019-03-31T09:36:39.342Z,101918.52
2019-03-31T09:39:09.188Z,101925.17
2019-03-31T09:41:39.236Z,101935.81
2019-03-31T09:44:09.184Z,101935.95
2019-03-31T09:46:39.041Z,101939.77
2019-03-31T09:49:09.018Z,101935.36
2019-03-31T09:51:38.916Z,101938.69
2019-03-31T09:54:08.847Z,101946.53
2019-03-31T09:56:38.913Z,101945.86
2019-03-31T09:59:08.790Z,101949.13
2019-03-31T10:01:38.621Z,101947.39
2019-03-31T10:04:08.825Z,101956.86
2019-03-31T10:06:38.706Z,101964.46
2019-03-31T10:09:08.853Z,101948.65
2019-03-31T10:11:38.843Z,101963.94
2019-03-31T10:14:08.652Z,101969.10
2019-03-31T10:16:38.665Z,101963.21
2019-03-31T10:19:08.944Z,101980.45
2019-03-31T10:21:38.794Z,101980.06
2019-03-31T10:24:08.685Z,101975.54
2019-03-31T10:26:38.602Z,101985.55
2019-03-31T10:29:08.481Z,101973.46
2019-03-31T10:31:38.377Z,101980.50
2019-03-31T10:34:08.337Z,101996.17
2019-03-31T10:36:44.329Z,101996.30
2019-03-31T10:39:11.159Z,101994.77
2019-03-31T10:41:41.007Z,101990.35
2019-03-31T10:44:10.816Z,102005.61
2019-03-31T10:46:40.923Z,102001.59
2019-03-31T10:49:11.352Z,102010.19
2019-03-31T10:51:41.177Z,102016.26
2019-03-31T10:54:11.124Z,102010.95
2019-03-31T10:56:41.019Z,102015.53
2019-03-31T10:59:10.884Z,102014.11
2019-03-31T11:01:40.925Z,102018.64
2019-03-31T11:04:10.775Z,102026.72
2019-03-31T11:06:40.727Z,102027.92
2019-03-31T11:09:10.941Z,102035.38
2019-03-31T11:11:40.749Z,102029.97
2019-03-31T11:14:10.770Z,102042.12
2019-03-31T11:16:40.821Z,102035.73
2019-03-31T11:19:10.617Z,102040.71
2019-03-31T11:21:45.977Z,102051.47
2019-03-31T11:24:15.845Z,102052.46
2019-03-31T11:26:45.649Z,102058.44
2019-03-31T11:29:15.928Z,102058.18
2019-03-31T11:31:45.762Z,102069.27
2019-03-31T11:34:15.990Z,102076.95
2019-03-31T11:36:46.043Z,102092.14
2019-03-31T11:39:16.374Z,102094.14
2019-03-31T11:41:46.438Z,102095.17
2019-03-31T11:44:16.405Z,102098.36
2019-03-31T11:46:46.259Z,102101.48
2019-03-31T11:49:16.595Z,102103.72
2019-03-31T11:51:46.448Z,102115.83
2019-03-31T11:54:16.243Z,102113.55
2019-03-31T11:56:46.122Z,102110.98
2019-03-31T11:59:16.152Z,102115.79
2019-03-31T12:01:45.990Z,102116.69
2019-03-31T12:04:15.818Z,102121.20
2019-03-31T12:06:45.973Z,102124.55
2019-03-31T12:09:15.800Z,102133.33
2019-03-31T12:11:45.958Z,102130.01
2019-03-31T12:14:16.118Z,102133.56
2019-03-31T12:16:45.925Z,102138.66
2019-03-31T12:19:15.726Z,102151.23
2019-03-31T12:21:45.707Z,102153.67
2019-03-31T12:24:15.563Z,102141.84
2019-03-31T12:26:45.372Z,102151.38
2019-03-31T12:29:15.432Z,102143.27
2019-03-31T12:31:45.272Z,102160.91
2019-03-31T12:34:15.129Z,102152.69
2019-03-31T12:36:44.980Z,102154.86
2019-03-31T12:39:14.829Z,102163.55
2019-03-31T12:41:44.651Z,102167.38
2019-03-31T12:44:14.660Z,102164.50
2019-03-31T12:46:44.507Z,102174.85
2019-03-31T12:49:14.339Z,102177.77
2019-03-31T12:51:44.351Z,102169.16
2019-03-31T12:54:14.163Z,102176.75
2019-03-31T12:56:44.016Z,102173.34
2019-03-31T12:59:14.070Z,102179.61
2019-03-31T13:01:43.925Z,102173.59
2019-03-31T13:04:13.777Z,102169.25
2019-03-31T13:06:44.012Z,102171.78
2019-03-31T13:09:13.854Z,102176.00
2019-03-31T13:11:43.795Z,102182.27
2019-03-31T13:14:13.958Z,102181.07
2019-03-31T13:16:43.966Z,102177.85
2019-03-31T13:19:13.821Z,102183.41
2019-03-31T13:21:43.952Z,102190.04
2019-03-31T13:24:13.758Z,102196.72
2019-03-31T13:26:43.630Z,102198.33
2019-03-31T13:29:13.765Z,102188.38
2019-03-31T13:31:43.597Z,102186.02
2019-03-31T13:34:13.408Z,102189.02
2019-03-31T13:36:43.470Z,102193.14
2019-03-31T13:39:13.381Z,102188.19
2019-03-31T13:41:43.172Z,102204.00
2019-03-31T13:44:13.228Z,102206.07
2019-03-31T13:46:43.088Z,102217.74
2019-03-31T13:49:12.927Z,102218.31
2019-03-31T13:51:42.938Z,102215.42
2019-03-31T13:54:12.798Z,102222.59
2019-03-31T13:56:45.956Z,102221.98
2019-03-31T13:59:14.382Z,102230.24
2019-03-31T14:01:44.397Z,102229.00
2019-03-31T14:04:14.251Z,102235.94
2019-03-31T14:06:44.203Z,102239.13
2019-03-31T14:09:14.034Z,102242.77
2019-03-31T14:11:43.910Z,102244.95
2019-03-31T14:14:14.038Z,102247.03
2019-03-31T14:16:43.861Z,102251.66
2019-03-31T14:19:13.718Z,102260.52
2019-03-31T14:21:43.835Z,102259.48
2019-03-31T14:24:13.736Z,102262.73
2019-03-31T14:26:43.618Z,102263.33
2019-03-31T14:29:13.627Z,102271.22
2019-03-31T14:31:43.420Z,102273.81
2019-03-31T14:34:13.209Z,102273.20
2019-03-31T14:36:43.097Z,102270.91
2019-03-31T14:39:12.932Z,102274.43
2019-03-31T14:41:42.793Z,102281.18
2019-03-31T14:44:12.709Z,102283.06
2019-03-31T14:46:42.495Z,102282.78
2019-03-31T14:49:12.284Z,102283.81
2019-03-31T14:51:42.305Z,102291.33
2019-03-31T14:54:12.157Z,102287.33
2019-03-31T14:56:41.951Z,102286.72
2019-03-31T14:59:11.968Z,102294.51
2019-03-31T15:01:41.763Z,102301.20
2019-03-31T15:04:11.546Z,102310.80
2019-03-31T15:06:41.717Z,102304.87
2019-03-31T15:09:11.558Z,102313.41
2019-03-31T15:11:41.338Z,102315.94
2019-03-31T15:14:11.319Z,102316.16
2019-03-31T15:16:41.164Z,102307.59
2019-03-31T15:19:10.954Z,102310.30
2019-03-31T15:21:44.045Z,102307.38
2019-03-31T15:24:12.631Z,102307.00
2019-03-31T15:26:42.620Z,102308.85
2019-03-31T15:29:12.606Z,102312.33
2019-03-31T15:31:42.456Z,102320.82
2019-03-31T15:34:12.657Z,102314.59
2019-03-31T15:36:42.480Z,102317.81
2019-03-31T15:39:12.365Z,102325.62
2019-03-31T15:41:42.445Z,102320.18
2019-03-31T15:44:12.434Z,102324.89
2019-03-31T15:46:42.266Z,102327.07
2019-03-31T15:49:12.222Z,102335.19
2019-03-31T15:51:42.041Z,102335.20
2019-03-31T15:54:11.835Z,102337.73
2019-03-31T15:56:41.953Z,102343.67
2019-03-31T15:59:11.807Z,102354.32
2019-03-31T16:01:41.635Z,102347.45
2019-03-31T16:04:11.627Z,102357.02
2019-03-31T16:06:41.419Z,102364.36
2019-03-31T16:09:22.834Z,102366.27
2019-03-31T16:11:53.141Z,102369.22
2019-03-31T16:14:13.117Z,102370.98
2019-03-31T16:16:42.393Z,102371.22
2019-03-31T16:19:11.858Z,102371.70
2019-03-31T16:21:44.049Z,102368.33
2019-03-31T16:24:12.236Z,102377.11
2019-03-31T16:26:41.656Z,102382.89
2019-03-31T16:29:10.981Z,102380.95
2019-03-31T16:31:40.333Z,102382.17
2019-03-31T16:34:09.758Z,102377.28
2019-03-31T16:36:39.056Z,102387.35
2019-03-31T16:39:08.529Z,102379.34
2019-03-31T16:41:38.092Z,102391.91
2019-03-31T16:44:07.387Z,102393.03
2019-03-31T16:46:39.755Z,102404.38
2019-03-31T16:49:07.941Z,102400.55
2019-03-31T16:51:37.322Z,102403.03
2019-03-31T16:54:07.180Z,102413.64
2019-03-31T16:56:36.653Z,102418.78
2019-03-31T16:59:06.020Z,102415.95
2019-03-31T17:01:35.324Z,102418.28
2019-03-31T17:04:04.771Z,102426.63
2019-03-31T17:06:34.081Z,102433.84
2019-03-31T17:09:05.042Z,102435.23
2019-03-31T17:11:34.522Z,102440.77
2019-03-31T17:14:03.889Z,102447.38
2019-03-31T17:16:33.171Z,102452.83
2019-03-31T17:19:02.665Z,102462.42
2019-03-31T17:21:31.941Z,102467.64
2019-03-31T17:24:01.288Z,102469.12
2019-03-31T17:26:30.800Z,102472.89
2019-03-31T17:29:00.245Z,102483.36
2019-03-31T17:31:29.535Z,102480.02
2019-03-31T17:33:59.053Z,102489.29
2019-03-31T17:36:28.428Z,102490.58
2019-03-31T17:38:57.767Z,102497.94
2019-03-31T17:41:27.045Z,102508.98
2019-03-31T17:43:56.374Z,102500.87
2019-03-31T17:46:25.691Z,102510.87
2019-03-31T17:48:55.126Z,102519.04
2019-03-31T17:51:24.432Z,102515.66
2019-03-31T17:53:53.672Z,102522.49
2019-03-31T17:56:23.015Z,102523.09
2019-03-31T17:58:52.427Z,102529.39
2019-03-31T18:01:21.770Z,102527.58
2019-03-31T18:03:51.181Z,102538.47
2019-03-31T18:06:20.512Z,102547.10
2019-03-31T18:08:49.793Z,102551.58
2019-03-31T18:11:19.314Z,102552.22
2019-03-31T18:13:48.628Z,102554.93
2019-03-31T18:16:17.903Z,102556.89
2019-03-31T18:18:47.335Z,102559.94
2019-03-31T18:21:16.652Z,102571.27
2019-03-31T18:23:45.938Z,102568.09
2019-03-31T18:26:15.270Z,102575.16
2019-03-31T18:28:44.659Z,102575.97
2019-03-31T18:31:13.934Z,102583.07
2019-03-31T18:33:43.183Z,102590.87
2019-03-31T18:36:12.541Z,102594.75
2019-03-31T18:38:41.782Z,102596.37
2019-03-31T18:41:11.146Z,102601.19
2019-03-31T18:43:51.259Z,102610.25
2019-03-31T18:46:11.558Z,102614.33
2019-03-31T18:48:40.930Z,102612.69
2019-03-31T18:51:10.319Z,102618.38
2019-03-31T18:53:50.110Z,102616.95
2019-03-31T18:56:47.455Z,102626.72
2019-03-31T18:59:45.146Z,102630.80
2019-03-31T19:02:42.723Z,102633.91
2019-03-31T19:05:39.422Z,102636.11
2019-03-31T19:08:31.255Z,102645.28
2019-03-31T19:11:14.762Z,102651.78
2019-03-31T19:14:07.673Z,102650.98
2019-03-31T19:16:46.539Z,102652.77
2019-03-31T19:19:46.791Z,102654.33
2019-03-31T19:22:33.803Z,102656.66
2019-03-31T19:25:12.945Z,102654.33
2019-03-31T19:28:16.487Z,102653.70
2019-03-31T19:31:22.840Z,102648.63
2019-03-31T19:34:17.342Z,102665.29
2019-03-31T19:37:07.535Z,102661.38
2019-03-31T19:40:11.131Z,102670.98
2019-03-31T19:43:11.868Z,102669.30
2019-03-31T19:45:58.920Z,102668.66
2019-03-31T19:49:05.134Z,102672.42
2019-03-31T19:51:59.255Z,102674.86
2019-03-31T19:54:38.676Z,102679.30
2019-03-31T19:57:39.052Z,102687.58
2019-03-31T20:00:19.268Z,102703.44
2019-03-31T20:03:02.066Z,102699.91
2019-03-31T20:05:51.037Z,102703.83
2019-03-31T20:08:37.911Z,102697.87
2019-03-31T20:11:14.582Z,102707.75
2019-03-31T20:14:14.948Z,102704.70
2019-03-31T20:17:09.276Z,102706.55
2019-03-31T20:19:57.659Z,102699.08
2019-03-31T20:22:51.909Z,102707.42
2019-03-31T20:25:46.063Z,102707.39
2019-03-31T20:28:43.525Z,102713.98
2019-03-31T20:31:32.402Z,102712.14
2019-03-31T20:34:38.736Z,102717.52
2019-03-31T20:37:25.584Z,102716.94
2019-03-31T20:40:13.814Z,102720.85
2019-03-31T20:42:53.570Z,102721.30
2019-03-31T20:45:22.973Z,102723.58
2019-03-31T20:47:52.299Z,102725.59
2019-03-31T20:50:21.717Z,102726.62
2019-03-31T20:52:51.082Z,102725.86
2019-03-31T20:55:20.355Z,102732.14
2019-03-31T20:57:49.863Z,102734.14
2019-03-31T21:00:19.433Z,102736.38
2019-03-31T21:02:48.711Z,102746.62
2019-03-31T21:05:18.109Z,102744.55
2019-03-31T21:07:47.438Z,102746.62
2019-03-31T21:10:16.726Z,102748.52
2019-03-31T21:12:46.179Z,102755.36
2019-03-31T21:15:15.520Z,102757.77
2019-03-31T21:17:44.919Z,102758.62
2019-03-31T21:20:14.315Z,102765.79
2019-03-31T21:22:43.572Z,102765.80
2019-03-31T21:25:13.884Z,102777.55
2019-03-31T21:27:43.590Z,102773.34
2019-03-31T21:30:13.450Z,102775.75
2019-03-31T21:32:42.818Z,102775.39
2019-03-31T21:35:12.564Z,102779.47
2019-03-31T21:37:41.846Z,102775.41
2019-03-31T21:40:11.271Z,102784.26
2019-03-31T21:42:40.692Z,102782.41
2019-03-31T21:45:10.081Z,102786.31
2019-03-31T21:47:39.381Z,102787.36
2019-03-31T21:50:09.073Z,102782.48
2019-03-31T21:52:38.396Z,102782.84
2019-03-31T21:55:07.887Z,102791.69
2019-03-31T21:57:37.337Z,102789.11
2019-03-31T22:00:08.372Z,102800.81
2019-03-31T22:02:37.828Z,102796.41
2019-03-31T22:05:08.130Z,102798.80
2019-03-31T22:07:37.410Z,102803.18
2019-03-31T22:10:07.119Z,102797.95
2019-03-31T22:12:36.403Z,102802.55
2019-03-31T22:15:06.306Z,102814.05
2019-03-31T22:17:35.822Z,102809.48
2019-03-31T22:20:05.566Z,102809.48
2019-03-31T22:22:34.842Z,102809.15
2019-03-31T22:25:04.323Z,102809.66
2019-03-31T22:27:33.576Z,102808.82
2019-03-31T22:30:02.805Z,102813.73
2019-03-31T22:32:32.351Z,102817.61
2019-03-31T22:35:01.570Z,102819.14
2019-03-31T22:37:30.813Z,102825.41
2019-03-31T22:40:00.379Z,102820.31
2019-03-31T22:42:29.811Z,102825.72
2019-03-31T22:44:59.084Z,102833.32
2019-03-31T22:47:28.439Z,102835.18
2019-03-31T22:49:57.774Z,102825.51
2019-03-31T22:52:27.073Z,102832.66
2019-03-31T22:54:56.588Z,102838.92
2019-03-31T22:57:25.955Z,102840.77
2019-03-31T22:59:55.204Z,102840.37
2019-03-31T23:02:25.627Z,102841.05
2019-03-31T23:04:54.966Z,102844.89
2019-03-31T23:07:24.338Z,102844.84
2019-03-31T23:09:53.729Z,102851.34
2019-03-31T23:12:22.992Z,102851.79
2019-03-31T23:14:52.299Z,102851.55
2019-03-31T23:17:21.903Z,102851.12
2019-03-31T23:19:51.220Z,102854.35
2019-03-31T23:22:20.554Z,102853.34
2019-03-31T23:24:50.082Z,102846.57
2019-03-31T23:27:19.399Z,102850.14
2019-03-31T23:29:48.654Z,102845.14
2019-03-31T23:32:18.174Z,102845.03
2019-03-31T23:34:47.475Z,102842.80
2019-03-31T23:37:16.802Z,102854.28
2019-03-31T23:39:46.451Z,102855.80
2019-03-31T23:42:15.811Z,102852.14
2019-03-31T23:44:45.156Z,102850.75
2019-03-31T23:47:14.415Z,102861.50
2019-03-31T23:49:43.734Z,102860.12
2019-03-31T23:52:12.992Z,102873.64
2019-03-31T23:54:42.461Z,102868.61
2019-03-31T23:57:11.769Z,102873.48
2019-03-31T23:59:41.128Z,102868.09
